Time;durP1;ratioP1;P1;durP2;ratioP2;P2;SDS_P1;SDS_P2;PMS_P1;PMS_P2;Temp;Humidity;BMP_temperature;BMP_pressure;BME280_temperature;BME280_humidity;BME280_pressure;Samples;Min_cycle;Max_cycle;Signal;HPM_P1;HPM_P2
2023/09/29 00:00:19;;;;;;;7.50;1.00;;;;;;;17.37;91.52;101001.81;4963015;28;20361;-76
2023/09/29 00:02:50;;;;;;;3.97;1.00;;;;;;;17.27;93.36;101000.03;4963924;28;20062;-77
2023/09/29 00:05:21;;;;;;;1.35;0.82;;;;;;;17.21;94.71;100997.34;4967772;28;20042;-77
2023/09/29 00:07:52;;;;;;;4.28;0.80;;;;;;;17.15;95.55;100992.06;4959850;28;20062;-78
2023/09/29 00:10:22;;;;;;;3.60;1.10;;;;;;;17.10;96.79;100994.66;4961798;28;20720;-78
2023/09/29 00:13:04;;;;;;;1.33;0.82;;;;;;;17.07;97.73;101001.63;4969269;28;20074;-78
2023/09/29 00:15:33;;;;;;;2.90;1.23;;;;;;;17.06;97.20;100994.63;4960519;28;20112;-78
2023/09/29 00:18:03;;;;;;;1.95;1.10;;;;;;;17.03;97.44;100990.25;4950361;28;20134;-77
2023/09/29 00:20:33;;;;;;;3.40;0.65;;;;;;;16.99;98.47;100987.63;4948753;28;20047;-76
2023/09/29 00:23:08;;;;;;;3.00;1.15;;;;;;;16.93;98.61;100989.34;4951415;28;20047;-77
2023/09/29 00:25:37;;;;;;;2.00;0.50;;;;;;;16.90;98.94;100978.84;4949023;28;20044;-77
2023/09/29 00:28:06;;;;;;;5.35;0.68;;;;;;;16.89;99.75;100976.22;4949651;28;20612;-77
2023/09/29 00:30:35;;;;;;;2.72;0.73;;;;;;;16.82;100.00;100982.28;4946698;28;20059;-77
2023/09/29 00:33:03;;;;;;;1.50;0.90;;;;;;;16.79;100.00;100977.91;4947089;28;20055;-76
2023/09/29 00:35:34;;;;;;;2.40;0.80;;;;;;;16.79;100.00;100977.91;4943184;28;20051;-76
2023/09/29 00:38:05;;;;;;;2.05;0.70;;;;;;;16.81;100.00;100976.16;4947670;28;20786;-77
2023/09/29 00:40:35;;;;;;;2.50;0.90;;;;;;;16.80;100.00;100982.25;4947277;28;20069;-77
2023/09/29 00:43:05;;;;;;;1.25;0.82;;;;;;;16.76;100.00;100975.22;4951818;28;20049;-76
2023/09/29 00:45:35;;;;;;;2.90;0.98;;;;;;;16.73;100.00;100980.44;4939833;28;20047;-79
2023/09/29 00:48:07;;;;;;;2.72;1.17;;;;;;;16.73;100.00;100980.44;4941444;28;20054;-78
2023/09/29 00:50:39;;;;;;;3.00;0.90;;;;;;;16.73;100.00;100976.06;4946305;28;20067;-78
2023/09/29 00:53:13;;;;;;;4.95;1.13;;;;;;;16.69;100.00;100970.81;4943817;28;21081;-79
2023/09/29 00:55:45;;;;;;;2.03;1.00;;;;;;;16.71;100.00;100969.97;4946454;28;20505;-78
2023/09/29 00:58:15;;;;;;;3.40;0.98;;;;;;;16.73;100.00;100959.53;4948173;28;20059;-79
2023/09/29 01:00:45;;;;;;;2.97;1.00;;;;;;;16.74;100.00;100970.00;4948902;28;20106;-79
2023/09/29 01:03:15;;;;;;;2.10;0.93;;;;;;;16.76;100.00;100954.31;4942087;28;20075;-78
2023/09/29 01:05:55;;;;;;;1.17;0.65;;;;;;;16.77;100.00;100966.53;4950163;28;20163;-79
2023/09/29 01:08:26;;;;;;;2.40;0.70;;;;;;;16.75;100.00;100957.81;4939672;28;20475;-79
2023/09/29 01:10:54;;;;;;;2.10;0.68;;;;;;;16.74;100.00;100956.03;4943570;28;20052;-79
2023/09/29 01:13:23;;;;;;;2.50;1.02;;;;;;;16.74;100.00;100956.03;4954636;28;20457;-78
2023/09/29 01:15:54;;;;;;;1.77;0.82;;;;;;;16.74;100.00;100950.81;4968513;28;20555;-80
2023/09/29 01:18:23;;;;;;;2.42;0.70;;;;;;;16.70;100.00;100955.16;4960449;28;20117;-78
2023/09/29 01:20:53;;;;;;;1.90;0.98;;;;;;;16.70;100.00;100943.84;4954401;28;20090;-79
2023/09/29 01:23:23;;;;;;;1.02;0.60;;;;;;;16.68;100.00;100951.66;4967786;28;20127;-77
2023/09/29 01:25:55;;;;;;;2.70;0.65;;;;;;;16.64;100.00;100949.00;4965551;28;20055;-78
2023/09/29 01:28:24;;;;;;;2.17;0.85;;;;;;;16.63;100.00;100949.84;4960141;28;20584;-77
2023/09/29 01:30:54;;;;;;;2.58;1.23;;;;;;;16.64;100.00;100944.66;4964012;28;20101;-78
2023/09/29 01:33:23;;;;;;;1.42;0.80;;;;;;;16.63;100.00;100949.84;4963696;28;20039;-77
2023/09/29 01:35:52;;;;;;;2.83;1.20;;;;;;;16.62;100.00;100945.50;4957930;28;20838;-77
2023/09/29 01:38:21;;;;;;;3.78;1.00;;;;;;;16.60;100.00;100948.09;4959278;28;20130;-77
2023/09/29 01:40:51;;;;;;;7.88;1.00;;;;;;;16.59;100.00;100948.09;4948140;28;21234;-77
2023/09/29 01:43:23;;;;;;;1.58;0.90;;;;;;;16.57;100.00;100945.47;4963047;28;20050;-76
2023/09/29 01:45:52;;;;;;;3.60;1.00;;;;;;;16.57;100.00;100945.47;4968726;28;20058;-77
2023/09/29 01:48:20;;;;;;;3.65;0.93;;;;;;;16.55;100.00;100945.44;4964370;28;20054;-78
2023/09/29 01:50:50;;;;;;;1.65;1.00;;;;;;;16.55;100.00;100941.97;4965542;28;20065;-75
2023/09/29 01:53:18;;;;;;;4.65;0.63;;;;;;;16.53;100.00;100941.06;4967860;28;20055;-76
2023/09/29 01:55:47;;;;;;;1.20;0.85;;;;;;;16.51;100.00;100946.28;4962856;28;20059;-77
2023/09/29 01:58:17;;;;;;;2.60;0.77;;;;;;;16.47;100.00;100947.13;4967032;28;20048;-76
2023/09/29 02:00:47;;;;;;;2.67;0.90;;;;;;;16.43;100.00;100939.25;4963219;28;20079;-76
2023/09/29 02:03:16;;;;;;;1.85;0.80;;;;;;;16.39;100.00;100935.75;4957247;28;20047;-77
2023/09/29 02:05:45;;;;;;;1.73;0.75;;;;;;;16.36;100.00;100938.34;4960071;28;20662;-79
2023/09/29 02:08:17;;;;;;;1.55;0.70;;;;;;;16.32;100.00;100939.16;4965734;28;20841;-77
2023/09/29 02:10:48;;;;;;;3.70;0.75;;;;;;;16.32;100.00;100933.94;4966074;28;20054;-76
2023/09/29 02:13:17;;;;;;;2.67;0.60;;;;;;;16.28;100.00;100934.78;4959145;28;20043;-78
2023/09/29 02:15:48;;;;;;;2.50;0.85;;;;;;;16.24;100.00;100930.38;4962601;28;20133;-78
2023/09/29 02:18:17;;;;;;;2.20;0.68;;;;;;;16.23;100.00;100932.13;4960825;28;20051;-78
2023/09/29 02:20:47;;;;;;;1.80;0.82;;;;;;;16.20;100.00;100926.00;4961176;28;20053;-78
2023/09/29 02:23:16;;;;;;;2.67;1.15;;;;;;;16.19;100.00;100919.03;4962211;28;20135;-79
2023/09/29 02:25:46;;;;;;;6.20;1.08;;;;;;;16.16;100.00;100913.78;4963151;28;20055;-79
2023/09/29 02:28:14;;;;;;;2.13;0.80;;;;;;;16.13;100.00;100910.28;4958841;28;20629;-81
2023/09/29 02:30:43;;;;;;;5.57;0.88;;;;;;;16.08;100.00;100911.97;4959927;28;20051;-77
2023/09/29 02:33:14;;;;;;;1.48;0.70;;;;;;;16.06;100.00;100908.47;4965205;28;20210;-77
2023/09/29 02:35:43;;;;;;;1.02;0.70;;;;;;;16.05;100.00;100905.84;4963244;28;20670;-77
2023/09/29 02:38:12;;;;;;;2.47;0.63;;;;;;;16.03;100.00;100907.56;4964686;28;20051;-76
2023/09/29 02:40:41;;;;;;;3.15;0.73;;;;;;;15.97;100.00;100903.16;4965655;28;20485;-76
2023/09/29 02:43:12;;;;;;;1.45;0.70;;;;;;;15.88;100.00;100895.25;4967503;28;20500;-77
2023/09/29 02:45:41;;;;;;;5.73;1.47;;;;;;;15.89;100.00;100912.66;4970541;28;20042;-80
2023/09/29 02:48:10;;;;;;;3.97;0.90;;;;;;;15.84;100.00;100910.00;4969124;28;20485;-78
2023/09/29 02:50:40;;;;;;;2.28;0.73;;;;;;;15.83;100.00;100917.81;4965314;28;20054;-78
2023/09/29 02:53:08;;;;;;;1.15;0.80;;;;;;;15.78;100.00;100911.66;4959891;28;20492;-76
2023/09/29 02:55:37;;;;;;;3.85;0.90;;;;;;;15.75;100.00;100911.63;4965202;28;20047;-77
2023/09/29 02:58:06;;;;;;;1.60;0.75;;;;;;;15.70;100.00;100908.94;4972587;28;20097;-77
2023/09/29 03:00:35;;;;;;;1.38;0.80;;;;;;;15.67;100.00;100906.31;4965022;28;20128;-77
2023/09/29 03:03:04;;;;;;;2.35;1.02;;;;;;;15.62;100.00;100903.66;4967319;28;20059;-76
2023/09/29 03:05:33;;;;;;;1.17;0.50;;;;;;;15.61;100.00;100898.41;4968908;28;20062;-77
2023/09/29 03:08:03;;;;;;;2.47;0.80;;;;;;;15.59;100.00;100903.59;4967434;28;20141;-78
2023/09/29 03:10:32;;;;;;;3.92;1.25;;;;;;;15.58;100.00;100904.47;4970507;28;20066;-77
2023/09/29 03:13:01;;;;;;;4.07;1.20;;;;;;;15.52;100.00;100891.34;4967357;28;20208;-77
2023/09/29 03:15:32;;;;;;;6.18;0.68;;;;;;;15.53;100.00;100900.03;4966911;28;20050;-77
2023/09/29 03:18:05;;;;;;;1.45;0.88;;;;;;;15.48;100.00;100897.38;4964536;28;20047;-78
2023/09/29 03:20:34;;;;;;;1.50;0.80;;;;;;;15.40;100.00;100891.22;4962075;28;20048;-76
2023/09/29 03:23:04;;;;;;;1.23;0.75;;;;;;;15.43;100.00;100893.84;4965465;28;20043;-75
2023/09/29 03:25:37;;;;;;;2.78;0.90;;;;;;;15.42;100.00;100887.78;4966102;28;20054;-76
2023/09/29 03:28:06;;;;;;;1.48;0.65;;;;;;;15.42;100.00;100887.78;4965086;28;20523;-76
2023/09/29 03:30:35;;;;;;;2.00;0.90;;;;;;;15.41;100.00;100892.97;4965567;28;20062;-76
2023/09/29 03:33:05;;;;;;;3.75;0.80;;;;;;;15.37;100.00;100880.72;4964774;28;20509;-76
2023/09/29 03:35:34;;;;;;;2.00;0.77;;;;;;;15.34;100.00;100885.91;4961847;28;20047;-76
2023/09/29 03:38:05;;;;;;;3.63;1.35;;;;;;;15.32;100.00;100879.81;4967339;28;20054;-78
2023/09/29 03:40:34;;;;;;;0.80;0.60;;;;;;;15.27;100.00;100888.44;4968345;28;20102;-77
2023/09/29 03:43:03;;;;;;;2.92;0.90;;;;;;;15.25;100.00;100889.28;4963136;28;20557;-76
2023/09/29 03:45:31;;;;;;;1.77;0.90;;;;;;;15.23;100.00;100885.78;4971213;28;20051;-76
2023/09/29 03:48:00;;;;;;;1.60;0.77;;;;;;;15.20;100.00;100885.75;4968848;28;20105;-76
2023/09/29 03:50:31;;;;;;;2.33;1.05;;;;;;;15.17;100.00;100889.19;4966055;28;20082;-75
2023/09/29 03:52:59;;;;;;;1.38;0.90;;;;;;;15.14;100.00;100881.34;4971052;28;20046;-77
2023/09/29 03:55:30;;;;;;;5.55;1.00;;;;;;;15.12;100.00;100888.28;4964925;28;20063;-76
2023/09/29 03:57:58;;;;;;;4.63;1.77;;;;;;;15.12;100.00;100885.66;4972234;28;20058;-81
2023/09/29 04:00:30;;;;;;;7.03;1.00;;;;;;;15.11;100.00;100886.50;4970200;28;20445;-75
2023/09/29 04:02:58;;;;;;;1.65;0.90;;;;;;;15.10;100.00;100883.91;4967396;28;20062;-74
2023/09/29 04:05:27;;;;;;;3.58;0.73;;;;;;;15.10;100.00;100878.69;4970427;28;20054;-74
2023/09/29 04:07:56;;;;;;;1.77;0.68;;;;;;;15.08;100.00;100870.84;4969219;28;20484;-82
2023/09/29 04:10:24;;;;;;;2.90;1.50;;;;;;;15.07;100.00;100869.06;4970450;28;20059;-78
2023/09/29 04:12:56;;;;;;;2.38;1.00;;;;;;;15.05;100.00;100868.19;4967166;28;20050;-77
2023/09/29 04:15:27;;;;;;;3.08;0.85;;;;;;;15.03;100.00;100856.88;4973888;28;20543;-77
2023/09/29 04:17:55;;;;;;;4.90;1.10;;;;;;;15.02;100.00;100860.31;4974611;28;20058;-77
2023/09/29 04:20:24;;;;;;;0.82;0.70;;;;;;;14.99;100.00;100860.28;4966781;28;20651;-76
2023/09/29 04:22:52;;;;;;;2.40;0.77;;;;;;;14.95;100.00;100854.16;4965646;28;20113;-76
2023/09/29 04:25:21;;;;;;;1.83;0.80;;;;;;;14.96;100.00;100855.91;4971520;28;20047;-76
2023/09/29 04:27:51;;;;;;;1.55;0.80;;;;;;;14.94;100.00;100847.22;4968187;28;20062;-78
2023/09/29 04:30:21;;;;;;;2.15;0.77;;;;;;;14.95;100.00;100842.88;4970137;28;20093;-77
2023/09/29 04:32:49;;;;;;;2.47;0.95;;;;;;;14.94;100.00;100839.41;4969214;28;20101;-76
2023/09/29 04:35:20;;;;;;;2.42;0.80;;;;;;;14.95;100.00;100838.53;4964750;28;20051;-74
2023/09/29 04:37:49;;;;;;;3.97;0.93;;;;;;;14.96;100.00;100842.03;4969041;28;20059;-74
2023/09/29 04:40:18;;;;;;;1.58;0.80;;;;;;;14.94;100.00;100834.19;4970198;28;20550;-75
2023/09/29 04:42:47;;;;;;;1.85;0.90;;;;;;;14.97;100.00;100833.34;4969254;28;20113;-75
2023/09/29 04:45:15;;;;;;;0.95;0.63;;;;;;;14.95;100.00;100829.84;4969498;28;20453;-76
2023/09/29 04:47:47;;;;;;;1.67;0.80;;;;;;;14.97;100.00;100831.59;4966360;28;20073;-76
2023/09/29 04:50:15;;;;;;;1.83;0.77;;;;;;;14.96;100.00;100832.47;4964119;28;20118;-75
2023/09/29 04:52:44;;;;;;;2.20;0.70;;;;;;;14.97;100.00;100828.13;4970918;28;20149;-76
2023/09/29 04:55:13;;;;;;;2.65;0.93;;;;;;;14.96;100.00;100831.59;4972453;28;20046;-76
2023/09/29 04:57:41;;;;;;;2.38;0.90;;;;;;;14.94;100.00;100821.16;4965099;28;20105;-75
2023/09/29 05:00:11;;;;;;;5.38;0.70;;;;;;;14.96;100.00;100829.00;4970582;28;20066;-75
2023/09/29 05:02:39;;;;;;;3.97;0.80;;;;;;;14.92;100.00;100822.84;4963905;28;20051;-74
2023/09/29 05:05:10;;;;;;;3.53;0.90;;;;;;;14.89;100.00;100822.84;4968901;28;20047;-76
2023/09/29 05:07:39;;;;;;;2.55;0.90;;;;;;;14.87;100.00;100815.00;4963509;28;20456;-75
2023/09/29 05:10:10;;;;;;;1.95;0.85;;;;;;;14.85;100.00;100814.09;4965075;28;20047;-75
2023/09/29 05:12:39;;;;;;;3.30;1.38;;;;;;;14.87;100.00;100821.94;4968041;28;20042;-76
2023/09/29 05:15:09;;;;;;;2.08;0.82;;;;;;;14.86;100.00;100821.03;4977559;28;20063;-76
2023/09/29 05:17:37;;;;;;;2.17;1.02;;;;;;;14.85;100.00;100810.63;4965378;28;20059;-74
2023/09/29 05:20:07;;;;;;;2.10;1.05;;;;;;;14.87;100.00;100804.56;4971730;28;20505;-74
2023/09/29 05:22:37;;;;;;;3.90;1.15;;;;;;;14.88;100.00;100800.22;4967587;28;20049;-75
2023/09/29 05:25:07;;;;;;;1.42;0.82;;;;;;;14.87;100.00;100798.50;4974144;28;20059;-74
2023/09/29 05:27:35;;;;;;;2.20;0.82;;;;;;;14.87;100.00;100799.34;4969835;28;20049;-75
2023/09/29 05:30:04;;;;;;;1.63;0.82;;;;;;;14.86;100.00;100791.50;4967982;28;20181;-75
2023/09/29 05:32:33;;;;;;;2.38;1.15;;;;;;;14.85;100.00;100793.25;4966909;28;20062;-74
2023/09/29 05:35:02;;;;;;;4.40;1.17;;;;;;;14.81;100.00;100787.97;4962659;28;20055;-76
2023/09/29 05:37:31;;;;;;;3.78;1.02;;;;;;;14.83;100.00;100794.09;4967744;28;20585;-74
2023/09/29 05:40:02;;;;;;;5.43;1.08;;;;;;;14.78;100.00;100794.03;4959888;28;20178;-75
2023/09/29 05:42:31;;;;;;;4.68;1.00;;;;;;;14.77;100.00;100788.78;4969372;28;20078;-74
2023/09/29 05:45:01;;;;;;;3.90;1.08;;;;;;;14.76;100.00;100782.72;4966961;28;20062;-74
2023/09/29 05:47:29;;;;;;;6.10;1.23;;;;;;;14.76;100.00;100785.31;4961879;28;20053;-76
2023/09/29 05:49:58;;;;;;;3.15;1.20;;;;;;;14.76;100.00;100793.13;4967200;28;20054;-76
2023/09/29 05:52:27;;;;;;;3.15;1.02;;;;;;;14.76;100.00;100795.75;4968346;28;20086;-75
2023/09/29 05:54:56;;;;;;;3.35;0.77;;;;;;;14.74;100.00;100791.38;4966221;28;20047;-75
2023/09/29 05:57:26;;;;;;;4.97;0.88;;;;;;;14.76;100.00;100800.06;4962924;28;20055;-75
2023/09/29 05:59:56;;;;;;;3.05;0.90;;;;;;;14.73;100.00;100793.09;4970423;28;20430;-75
2023/09/29 06:02:24;;;;;;;4.53;1.02;;;;;;;14.73;100.00;100798.31;4965534;28;20051;-75
2023/09/29 06:04:53;;;;;;;2.92;0.80;;;;;;;14.74;100.00;100797.44;4961204;28;20039;-76
2023/09/29 06:07:24;;;;;;;1.08;0.77;;;;;;;14.74;100.00;100791.38;4968953;28;20114;-75
2023/09/29 06:09:52;;;;;;;3.88;1.00;;;;;;;14.73;100.00;100795.72;4961171;28;20628;-76
2023/09/29 06:12:21;;;;;;;1.88;0.82;;;;;;;14.71;100.00;100787.00;4966535;28;20063;-75
2023/09/29 06:14:51;;;;;;;1.83;0.90;;;;;;;14.71;100.00;100776.56;4963089;28;20067;-75
2023/09/29 06:17:19;;;;;;;3.90;1.23;;;;;;;14.72;100.00;100780.91;4963628;28;20078;-75
2023/09/29 06:19:50;;;;;;;1.05;0.90;;;;;;;14.70;100.00;100774.81;4967955;28;20093;-75
2023/09/29 06:22:19;;;;;;;2.28;1.73;;;;;;;14.68;100.00;100766.09;4968176;28;20061;-76
2023/09/29 06:24:48;;;;;;;3.00;1.00;;;;;;;14.72;100.00;100767.03;4965602;28;20051;-76
2023/09/29 06:27:16;;;;;;;6.45;1.10;;;;;;;14.71;100.00;100763.56;4969569;28;20058;-76
2023/09/29 06:29:49;;;;;;;4.47;1.15;;;;;;;14.71;100.00;100760.94;4964458;28;20057;-76
2023/09/29 06:32:20;;;;;;;3.20;0.82;;;;;;;14.71;100.00;100752.28;4961618;28;20148;-75
2023/09/29 06:34:48;;;;;;;2.95;0.80;;;;;;;14.68;100.00;100754.81;4955012;28;20126;-76
2023/09/29 06:37:18;;;;;;;2.42;1.30;;;;;;;14.66;100.00;100752.22;4965987;28;20043;-75
2023/09/29 06:39:47;;;;;;;3.03;1.35;;;;;;;14.65;100.00;100751.31;4967129;28;20592;-75
2023/09/29 06:42:15;;;;;;;2.83;1.13;;;;;;;14.66;100.00;100747.00;4967515;28;20057;-75
2023/09/29 06:44:44;;;;;;;3.38;0.98;;;;;;;14.63;100.00;100746.94;4967908;28;20050;-75
2023/09/29 06:47:12;;;;;;;4.63;1.38;;;;;;;14.64;100.00;100748.72;4966890;28;20058;-76
2023/09/29 06:49:43;;;;;;;2.80;1.15;;;;;;;14.64;100.00;100738.28;4969063;28;20145;-75
2023/09/29 06:52:11;;;;;;;3.80;1.30;;;;;;;14.63;100.00;100739.13;4964869;28;20059;-75
2023/09/29 06:54:49;;;;;;;2.20;1.10;;;;;;;14.61;100.00;100735.63;4967161;28;20069;-76
2023/09/29 06:57:17;;;;;;;2.38;1.08;;;;;;;14.61;100.00;100733.03;4965018;28;20055;-75
2023/09/29 06:59:46;;;;;;;4.05;1.27;;;;;;;14.60;100.00;100729.56;4966062;28;20051;-76
2023/09/29 07:02:15;;;;;;;5.78;1.30;;;;;;;14.62;100.00;100729.59;4964627;28;20050;-74
2023/09/29 07:04:47;;;;;;;5.88;1.10;;;;;;;14.62;100.00;100734.78;4965452;28;20504;-76
2023/09/29 07:07:16;;;;;;;4.70;1.50;;;;;;;14.59;100.00;100732.13;4965023;28;20058;-76
2023/09/29 07:09:45;;;;;;;3.78;1.77;;;;;;;14.56;100.00;100719.94;4966075;28;20090;-76
2023/09/29 07:12:13;;;;;;;4.13;1.60;;;;;;;14.56;100.00;100719.94;4967010;28;20054;-76
2023/09/29 07:14:43;;;;;;;2.72;1.08;;;;;;;14.54;100.00;100724.25;4970919;28;20055;-74
2023/09/29 07:17:12;;;;;;;3.75;1.38;;;;;;;14.52;100.00;100717.25;4964900;28;20117;-76
2023/09/29 07:19:43;;;;;;;2.22;1.23;;;;;;;14.50;100.00;100718.97;4966519;28;20561;-75
2023/09/29 07:22:13;;;;;;;4.40;1.00;;;;;;;14.50;100.00;100713.75;4965065;28;20058;-76
2023/09/29 07:24:46;;;;;;;2.05;1.20;;;;;;;14.51;100.00;100713.78;4965789;28;20138;-76
2023/09/29 07:27:15;;;;;;;5.13;1.30;;;;;;;14.50;100.00;100714.66;4963936;28;20142;-76
2023/09/29 07:29:43;;;;;;;2.95;1.23;;;;;;;14.51;100.00;100710.31;4964601;28;20115;-75
2023/09/29 07:32:13;;;;;;;3.65;1.50;;;;;;;14.51;100.00;100703.38;4966129;28;20054;-75
2023/09/29 07:34:42;;;;;;;3.50;1.08;;;;;;;14.52;100.00;100702.50;4964653;28;20051;-75
2023/09/29 07:37:15;;;;;;;2.83;1.30;;;;;;;14.53;100.00;100703.41;4964404;28;20110;-75
2023/09/29 07:39:43;;;;;;;1.77;1.10;;;;;;;14.52;100.00;100699.91;4967835;28;20055;-76
2023/09/29 07:42:12;;;;;;;3.00;0.90;;;;;;;14.51;100.00;100694.69;4970680;28;20054;-76
2023/09/29 07:44:41;;;;;;;4.47;1.10;;;;;;;14.46;100.00;100695.50;4964938;28;20042;-75
2023/09/29 07:47:09;;;;;;;6.15;1.05;;;;;;;14.45;100.00;100685.97;4969089;28;20074;-74
2023/09/29 07:49:40;;;;;;;2.53;0.90;;;;;;;14.45;100.00;100693.78;4966153;28;20050;-75
2023/09/29 07:52:09;;;;;;;3.97;1.20;;;;;;;14.48;100.00;100692.03;4969189;28;20055;-73
2023/09/29 07:54:39;;;;;;;3.63;0.90;;;;;;;14.48;100.00;100684.22;4968090;28;20047;-75
2023/09/29 07:57:08;;;;;;;2.95;1.50;;;;;;;14.49;100.00;100688.59;4965641;28;20191;-76
2023/09/29 07:59:36;;;;;;;3.63;1.15;;;;;;;14.51;100.00;100684.28;4966856;28;20061;-76
2023/09/29 08:02:05;;;;;;;6.00;1.17;;;;;;;14.49;100.00;100680.78;4964859;28;20047;-74
2023/09/29 08:04:34;;;;;;;3.17;1.38;;;;;;;14.48;100.00;100679.91;4967592;28;20404;-75
2023/09/29 08:07:02;;;;;;;2.60;0.70;;;;;;;14.49;100.00;100675.56;4965667;28;20043;-74
2023/09/29 08:09:30;;;;;;;2.20;1.10;;;;;;;14.50;100.00;100666.91;4968073;28;20118;-74
2023/09/29 08:12:04;;;;;;;4.30;0.93;;;;;;;14.49;100.00;100659.94;4966993;28;20062;-75
2023/09/29 08:14:33;;;;;;;1.02;0.70;;;;;;;14.50;100.00;100661.69;4966686;28;20973;-74
2023/09/29 08:17:02;;;;;;;3.95;1.08;;;;;;;14.48;100.00;100669.50;4966067;28;20058;-74
2023/09/29 08:19:30;;;;;;;1.45;0.80;;;;;;;14.48;100.00;100659.09;4969285;28;20658;-75
2023/09/29 08:21:59;;;;;;;3.20;0.93;;;;;;;14.48;100.00;100663.41;4965314;28;20078;-75
2023/09/29 08:24:30;;;;;;;2.70;1.15;;;;;;;14.48;100.00;100668.59;4966307;28;20058;-75
2023/09/29 08:27:00;;;;;;;1.48;1.05;;;;;;;14.47;100.00;100667.72;4967969;28;20101;-75
2023/09/29 08:29:29;;;;;;;4.13;1.15;;;;;;;14.46;100.00;100656.44;4968033;28;20075;-75
2023/09/29 08:32:00;;;;;;;2.22;0.88;;;;;;;14.48;100.00;100663.41;4973567;28;20062;-75
2023/09/29 08:34:31;;;;;;;2.10;1.00;;;;;;;14.48;100.00;100658.19;4968494;28;20057;-75
2023/09/29 08:37:00;;;;;;;3.88;0.93;;;;;;;14.43;100.00;100656.44;4968986;28;20054;-74
2023/09/29 08:39:28;;;;;;;4.90;0.90;;;;;;;14.43;100.00;100659.03;4969553;28;20109;-75
2023/09/29 08:42:05;;;;;;;2.95;0.88;;;;;;;14.44;100.00;100663.38;4967579;28;20046;-75
2023/09/29 08:44:35;;;;;;;2.47;0.90;;;;;;;14.45;100.00;100649.50;4967773;28;20047;-75
2023/09/29 08:47:05;;;;;;;3.38;1.20;;;;;;;14.45;100.00;100649.50;4968102;28;20117;-75
2023/09/29 08:49:35;;;;;;;1.35;0.60;;;;;;;14.46;100.00;100656.44;4971205;28;20038;-75
2023/09/29 08:52:08;;;;;;;2.38;0.90;;;;;;;14.48;100.00;100647.78;4966204;28;20109;-75
2023/09/29 08:54:37;;;;;;;7.95;1.20;;;;;;;14.49;100.00;100649.53;4969006;28;20050;-76
2023/09/29 08:57:09;;;;;;;4.13;0.90;;;;;;;14.49;100.00;100654.75;4964865;28;20114;-75
2023/09/29 08:59:39;;;;;;;4.75;0.73;;;;;;;14.50;100.00;100661.69;4969796;28;20506;-76
2023/09/29 09:02:09;;;;;;;1.63;1.02;;;;;;;14.49;100.00;100653.00;4967838;28;20061;-75
2023/09/29 09:04:37;;;;;;;4.53;0.65;;;;;;;14.47;100.00;100654.72;4966916;28;20540;-74
2023/09/29 09:07:06;;;;;;;2.95;1.00;;;;;;;14.45;100.00;100643.41;4969097;28;20074;-76
2023/09/29 09:09:35;;;;;;;4.32;1.35;;;;;;;14.41;100.00;100647.72;4972647;28;20726;-76
2023/09/29 09:12:04;;;;;;;8.60;1.33;;;;;;;14.37;100.00;100650.28;4969166;28;20073;-76
2023/09/29 09:14:43;;;;;;;1.85;0.77;;;;;;;14.38;100.00;100657.22;4965699;28;20095;-74
2023/09/29 09:17:12;;;;;;;2.35;1.00;;;;;;;14.36;100.00;100649.41;4967757;28;20051;-76
2023/09/29 09:19:51;;;;;;;2.08;0.70;;;;;;;14.35;100.00;100650.25;4969320;28;20122;-76
2023/09/29 09:22:22;;;;;;;1.45;0.50;;;;;;;14.33;100.00;100638.94;4967597;28;20047;-75
2023/09/29 09:24:51;;;;;;;5.50;0.80;;;;;;;14.34;100.00;100632.88;4969507;28;20051;-75
2023/09/29 09:27:19;;;;;;;1.83;0.63;;;;;;;14.35;100.00;100634.63;4966375;28;20047;-76
2023/09/29 09:29:50;;;;;;;2.47;0.75;;;;;;;14.33;100.00;100631.13;4969551;28;20528;-77
2023/09/29 09:32:28;;;;;;;1.67;0.57;;;;;;;14.33;100.00;100622.44;4967793;28;20106;-75
2023/09/29 09:34:56;;;;;;;3.50;0.98;;;;;;;14.32;100.00;100618.97;4968132;28;20133;-75
2023/09/29 09:37:29;;;;;;;1.45;0.57;;;;;;;14.32;100.00;100608.56;4967904;28;20255;-76
2023/09/29 09:39:59;;;;;;;1.27;0.70;;;;;;;14.29;100.00;100611.13;4967732;28;20054;-75
2023/09/29 09:42:28;;;;;;;4.25;0.80;;;;;;;14.27;100.00;100612.84;4964711;28;20051;-75
2023/09/29 09:44:59;;;;;;;0.82;0.55;;;;;;;14.27;100.00;100618.06;4968498;28;20047;-75
2023/09/29 09:47:28;;;;;;;2.28;0.90;;;;;;;14.20;100.00;100611.00;4966863;28;20114;-75
2023/09/29 09:49:59;;;;;;;1.83;0.60;;;;;;;14.28;100.00;100613.72;4967749;28;20452;-75
2023/09/29 09:52:29;;;;;;;2.05;0.93;;;;;;;14.24;100.00;100615.41;4964386;28;20050;-76
2023/09/29 09:55:02;;;;;;;2.85;0.98;;;;;;;14.19;100.00;100620.53;4963091;28;20110;-77
2023/09/29 09:57:33;;;;;;;2.15;0.70;;;;;;;14.16;100.00;100620.53;4969262;28;20189;-76
2023/09/29 10:00:08;;;;;;;1.38;0.60;;;;;;;14.17;100.00;100619.66;4968730;28;20065;-75
2023/09/29 10:02:39;;;;;;;3.00;1.13;;;;;;;14.15;100.00;100616.16;4968942;28;20234;-76
2023/09/29 10:05:16;;;;;;;4.57;1.02;;;;;;;14.13;100.00;100617.00;4967522;28;20485;-76
2023/09/29 10:07:49;;;;;;;0.95;0.85;;;;;;;14.09;100.00;100610.88;4969828;28;20042;-76
2023/09/29 10:10:31;;;;;;;4.43;0.80;;;;;;;14.09;100.00;100610.00;4965861;28;20780;-76
2023/09/29 10:13:00;;;;;;;1.65;0.90;;;;;;;14.11;100.00;100611.78;4964928;28;20123;-75
2023/09/29 10:15:32;;;;;;;1.77;0.50;;;;;;;14.10;100.00;100604.81;4970726;28;20527;-76
2023/09/29 10:18:02;;;;;;;0.80;0.68;;;;;;;14.14;100.00;100610.94;4970393;28;20077;-76
2023/09/29 10:20:35;;;;;;;1.85;0.88;;;;;;;14.16;100.00;100609.25;4968504;28;20104;-74
2023/09/29 10:23:06;;;;;;;3.30;1.13;;;;;;;14.20;100.00;100605.81;4962637;28;20051;-75
2023/09/29 10:25:35;;;;;;;2.35;0.60;;;;;;;14.21;100.00;100607.56;4967240;28;20582;-75
2023/09/29 10:28:07;;;;;;;1.00;0.57;;;;;;;14.21;100.00;100605.81;4965811;28;20130;-74
2023/09/29 10:30:39;;;;;;;2.38;0.70;;;;;;;14.22;100.00;100599.78;4968409;28;20133;-75
2023/09/29 10:33:11;;;;;;;1.55;0.55;;;;;;;14.23;100.00;100600.66;4967143;28;20050;-76
2023/09/29 10:35:47;;;;;;;1.73;0.63;;;;;;;14.25;100.00;100594.59;4966550;28;20145;-75
2023/09/29 10:38:27;;;;;;;4.00;1.00;;;;;;;14.26;100.00;100587.66;4966538;28;20134;-75
2023/09/29 10:40:58;;;;;;;1.40;0.98;;;;;;;14.28;100.00;100582.50;4959948;28;20246;-75
2023/09/29 10:43:26;;;;;;;3.00;0.80;;;;;;;14.27;100.00;100578.13;4967739;28;20130;-75
2023/09/29 10:45:57;;;;;;;3.55;0.85;;;;;;;14.27;100.00;100591.13;4968241;28;20066;-76
2023/09/29 10:48:27;;;;;;;2.72;0.70;;;;;;;14.25;100.00;100589.41;4962504;28;20101;-76
2023/09/29 10:50:55;;;;;;;0.98;0.60;;;;;;;14.21;100.00;100590.22;4962851;28;20070;-76
2023/09/29 10:53:47;;;;;;;1.55;0.70;;;;;;;14.16;100.00;100585.81;4970311;28;20113;-77
2023/09/29 10:56:20;;;;;;;2.38;1.30;;;;;;;14.15;100.00;100591.88;4967113;28;20051;-78
2023/09/29 10:58:52;;;;;;;3.80;1.23;;;;;;;14.13;100.00;100589.25;4968361;28;20145;-77
2023/09/29 11:01:30;;;;;;;2.37;0.63;;;;;;;14.11;100.00;100580.56;4966476;28;20106;-76
2023/09/29 11:03:59;;;;;;;1.38;0.85;;;;;;;14.13;100.00;100585.75;4961262;28;20051;-76
2023/09/29 11:06:28;;;;;;;3.05;0.93;;;;;;;14.07;100.00;100564.91;4967629;28;20042;-77
2023/09/29 11:08:58;;;;;;;6.38;0.85;;;;;;;14.14;100.00;100579.72;4963177;28;20134;-77
2023/09/29 11:11:35;;;;;;;9.38;1.20;;;;;;;14.12;100.00;100579.69;4965300;28;20082;-76
2023/09/29 11:14:04;;;;;;;1.02;0.50;;;;;;;14.10;100.00;100580.53;4957941;28;20055;-75
2023/09/29 11:16:36;;;;;;;3.45;0.63;;;;;;;14.09;100.00;100581.38;4968374;28;20150;-76
2023/09/29 11:19:12;;;;;;;1.25;0.50;;;;;;;13.98;100.00;100563.91;4967469;28;20073;-76
2023/09/29 11:21:42;;;;;;;1.77;0.70;;;;;;;14.06;100.00;100576.16;4964480;28;20071;-76
2023/09/29 11:24:13;;;;;;;2.95;0.85;;;;;;;14.04;100.00;100574.41;4967307;28;20050;-75
2023/09/29 11:26:43;;;;;;;3.83;0.90;;;;;;;14.03;100.00;100572.66;4966077;28;20059;-77
2023/09/29 11:29:22;;;;;;;2.05;0.55;;;;;;;14.00;100.00;100567.41;4966846;28;20074;-76